Thursday, January 17, 2019, 6:17 AM EST
Back to Local

KHPN, White Plains Westchester

Location: Greenwich, NY, United States Lat: 41.067
Local Time: 6:17 AM EST (11:17 GMT) Lon: -73.7
Time Zone: US/Eastern Elev: 439 ft

Show me the last for .
Show Coded

Time T Td Feel RH Dir Speed Gust Alt SLP Vis Weather Sky Remarks
2019-01-17 04:56 23 8 11 52 320° 13 - 30.29 30.31 10 FEW010 None
2019-01-17 03:56 23 7 12 49 320° 12 - 30.27 30.30 10 CLR None
2019-01-17 02:56 25 5 12 41 320° 17 - 30.26 30.29 10 CLR None
2019-01-17 01:56 26 6 11 41 310° 18 23 30.25 - 10 CLR None
2019-01-17 00:56 28 6 15 38 310° 16 21 30.22 30.25 10 CLR 6-hr Min Temp (1am): 28.0°F
6-hr Max Temp (1am): 37.0°F
2019-01-16 23:56 29 11 18 46 310° 14 - 30.19 30.22 10 CLR None
2019-01-16 22:56 31 11 17 42 310° 16 24 30.18 - 10 CLR Peak wind: 29 mph (26 kts) from 290° at 12 min
2019-01-16 21:56 33 13 19 42 300° 22 30 30.15 - 10 CLR Peak wind: 31 mph (27 kts) from 300° at 54 min
2019-01-16 19:56 37 19 29 47 320° 13 - 30.09 - 10 BKN050 None
2019-01-16 17:56 37 18 34 44 290° 5 - 30.04 - 10 BKN055 None
2019-01-16 16:56 37 18 27 44 280° 13 20 30.02 - 10 BKN055 None
2019-01-16 15:56 37 19 30 47 290° 10 - 30.01 - 10 BKN045 None
2019-01-16 14:56 37 19 27 47 290° 14 20 29.99 - 10 FEW040 BKN080 None
2019-01-16 13:56 37 25 29 60 300° 14 - 29.99 - 10 FEW040 BKN060 None
2019-01-16 12:56 46 16 42 28 260° 9 - 29.99 - 10 CLR None
2019-01-16 11:56 37 25 30 60 310° 12 - 30.01 - 10 BKN080 None
2019-01-16 10:56 36 25 30 64 280° 7 - 30.04 - 8 SCT040 BKN080 None
2019-01-16 09:56 - - - 0 270° 7 - 30.04 - 8 BKN030 OVC050 None
2019-01-16 08:56 28 16 20 58 320° 9 - 30.01 - 8 BKN030 None
2019-01-16 07:56 28 16 20 58 330° 9 - 30.01 - 10 FEW030 None
2019-01-16 06:56 27 14 19 58 340° 7 - 30.02 - 10 FEW030 None

Support USWX by starting your Amazon purchase here.